createdAt,value
2019-06-08T00:00:49.720Z,100450.81
2019-06-08T00:03:17.011Z,100467.70
2019-06-08T00:05:44.275Z,100455.97
2019-06-08T00:08:12.985Z,100449.53
2019-06-08T00:10:40.399Z,100452.80
2019-06-08T00:13:07.669Z,100443.41
2019-06-08T00:15:35.135Z,100448.13
2019-06-08T00:18:02.380Z,100432.20
2019-06-08T00:20:29.649Z,100441.25
2019-06-08T00:22:56.891Z,100443.14
2019-06-08T00:25:24.302Z,100435.06
2019-06-08T00:27:51.615Z,100436.45
2019-06-08T00:30:19.222Z,100436.10
2019-06-08T00:32:46.477Z,100439.56
2019-06-08T00:35:14.494Z,100436.22
2019-06-08T00:37:41.823Z,100450.00
2019-06-08T00:40:09.689Z,100455.14
2019-06-08T00:42:36.878Z,100456.81
2019-06-08T00:45:04.906Z,100460.61
2019-06-08T00:47:47.171Z,100453.41
2019-06-08T00:50:01.700Z,100469.41
2019-06-08T00:52:31.243Z,100471.05
2019-06-08T00:54:58.457Z,100455.35
2019-06-08T00:57:26.084Z,100461.00
2019-06-08T00:59:53.383Z,100469.52
2019-06-08T01:02:20.681Z,100483.75
2019-06-08T01:04:47.830Z,100485.61
2019-06-08T01:07:15.119Z,100486.95
2019-06-08T01:09:42.401Z,100490.35
2019-06-08T01:12:09.568Z,100496.64
2019-06-08T01:14:36.950Z,100490.92
2019-06-08T01:17:04.471Z,100490.63
2019-06-08T01:19:31.939Z,100493.35
2019-06-08T01:21:59.333Z,100497.73
2019-06-08T01:24:28.034Z,100485.95
2019-06-08T01:26:55.485Z,100494.66
2019-06-08T01:29:24.027Z,100511.36
2019-06-08T01:31:51.440Z,100517.05
2019-06-08T01:34:20.600Z,100525.08
2019-06-08T01:36:48.022Z,100530.47
2019-06-08T01:39:15.311Z,100531.05
2019-06-08T01:41:42.571Z,100523.04
2019-06-08T01:44:10.024Z,100522.75
2019-06-08T01:46:37.299Z,100520.90
2019-06-08T01:49:04.758Z,100522.81
2019-06-08T01:51:32.735Z,100521.76
2019-06-08T01:54:00.189Z,100543.16
2019-06-08T01:56:27.478Z,100530.28
2019-06-08T01:58:54.857Z,100533.39
2019-06-08T02:01:22.014Z,100536.63
2019-06-08T02:03:49.465Z,100538.66
2019-06-08T02:06:16.829Z,100535.42
2019-06-08T02:08:44.186Z,100537.73
2019-06-08T02:11:11.638Z,100546.55
2019-06-08T02:13:39.007Z,100561.58
2019-06-08T02:16:06.523Z,100543.56
2019-06-08T02:18:46.847Z,100535.20
2019-06-08T02:21:03.327Z,100556.67
2019-06-08T02:23:31.134Z,100553.87
2019-06-08T02:25:58.766Z,100554.56
2019-06-08T02:28:27.348Z,100561.06
2019-06-08T02:30:54.919Z,100562.16
2019-06-08T02:33:22.274Z,100553.73
2019-06-08T02:35:49.540Z,100556.27
2019-06-08T02:38:17.182Z,100538.14
2019-06-08T02:40:44.454Z,100556.92
2019-06-08T02:43:11.922Z,100567.65
2019-06-08T02:45:40.392Z,100580.42
2019-06-08T02:48:08.180Z,100583.40
2019-06-08T02:51:01.183Z,100586.48
2019-06-08T02:53:29.483Z,100588.70
2019-06-08T02:55:58.867Z,100585.17
2019-06-08T02:58:26.311Z,100590.81
2019-06-08T03:00:55.294Z,100578.23
2019-06-08T03:03:24.166Z,100587.94
2019-06-08T03:05:51.568Z,100595.16
2019-06-08T03:08:20.080Z,100605.83
2019-06-08T03:10:50.992Z,100599.84
2019-06-08T03:13:23.996Z,100601.75
2019-06-08T03:15:52.397Z,100598.17
2019-06-08T03:18:19.770Z,100600.30
2019-06-08T03:20:47.017Z,100595.84
2019-06-08T03:23:14.541Z,100619.97
2019-06-08T03:25:51.538Z,100613.95
2019-06-08T03:28:10.762Z,100624.34
2019-06-08T03:30:45.418Z,100622.96
2019-06-08T03:33:07.142Z,100634.78
2019-06-08T03:35:36.064Z,100635.83
2019-06-08T03:38:03.701Z,100643.86
2019-06-08T03:40:33.934Z,100658.17
2019-06-08T03:43:01.840Z,100649.98
2019-06-08T03:45:29.204Z,100647.42
2019-06-08T03:47:56.326Z,100655.33
2019-06-08T03:50:26.104Z,100664.66
2019-06-08T03:52:53.579Z,100674.48
2019-06-08T03:55:20.868Z,100673.72
2019-06-08T03:57:48.137Z,100680.05
2019-06-08T04:00:16.470Z,100684.72
2019-06-08T04:02:46.708Z,100683.44
2019-06-08T04:05:13.563Z,100688.54
2019-06-08T04:07:42.178Z,100692.42
2019-06-08T04:10:10.570Z,100690.81
2019-06-08T04:12:37.864Z,100709.73
2019-06-08T04:15:05.921Z,100713.31
2019-06-08T04:17:33.281Z,100724.79
2019-06-08T04:20:10.582Z,100708.64
2019-06-08T04:22:33.031Z,100722.13
2019-06-08T04:25:00.213Z,100727.28
2019-06-08T04:27:27.397Z,100726.41
2019-06-08T04:29:57.626Z,100740.72
2019-06-08T04:32:25.092Z,100737.86
2019-06-08T04:34:52.253Z,100744.40
2019-06-08T04:37:19.643Z,100739.38
2019-06-08T04:39:47.054Z,100738.63
2019-06-08T04:42:14.303Z,100738.71
2019-06-08T04:44:42.572Z,100751.81
2019-06-08T04:47:09.958Z,100749.90
2019-06-08T04:49:38.498Z,100755.31
2019-06-08T04:52:05.779Z,100755.37
2019-06-08T04:54:33.065Z,100758.66
2019-06-08T04:57:00.320Z,100756.40
2019-06-08T04:59:27.481Z,100765.58
2019-06-08T05:01:54.745Z,100777.50
2019-06-08T05:04:22.175Z,100774.91
2019-06-08T05:06:49.694Z,100767.42
2019-06-08T05:09:17.125Z,100775.64
2019-06-08T05:11:45.264Z,100773.98
2019-06-08T05:14:12.779Z,100768.14
2019-06-08T05:16:41.272Z,100767.03
2019-06-08T05:19:08.668Z,100767.31
2019-06-08T05:21:37.298Z,100777.24
2019-06-08T05:24:04.764Z,100781.36
2019-06-08T05:26:32.024Z,100788.77
2019-06-08T05:28:59.291Z,100784.16
2019-06-08T05:31:26.441Z,100794.42
2019-06-08T05:33:53.741Z,100793.03
2019-06-08T05:36:21.060Z,100796.31
2019-06-08T05:38:49.956Z,100796.00
2019-06-08T05:41:17.390Z,100782.22
2019-06-08T05:43:45.615Z,100793.30
2019-06-08T05:46:23.017Z,100785.54
2019-06-08T05:48:50.516Z,100799.64
2019-06-08T05:51:17.821Z,100806.47
2019-06-08T05:53:45.856Z,100804.19
2019-06-08T05:56:13.214Z,100804.88
2019-06-08T05:58:40.369Z,100804.38
2019-06-08T06:01:07.846Z,100812.39
2019-06-08T06:03:35.130Z,100802.16
2019-06-08T06:06:03.119Z,100804.36
2019-06-08T06:08:30.397Z,100812.97
2019-06-08T06:11:00.626Z,100817.39
2019-06-08T06:13:28.051Z,100821.80
2019-06-08T06:15:55.215Z,100814.62
2019-06-08T06:18:22.570Z,100804.09
2019-06-08T06:20:51.360Z,100827.06
2019-06-08T06:23:18.960Z,100815.44
2019-06-08T06:25:47.461Z,100817.64
2019-06-08T06:28:15.280Z,100821.77
2019-06-08T06:30:44.187Z,100821.77
2019-06-08T06:33:11.711Z,100812.94
2019-06-08T06:35:39.073Z,100824.27
2019-06-08T06:38:06.446Z,100831.20
2019-06-08T06:40:33.869Z,100842.54
2019-06-08T06:43:01.247Z,100845.84
2019-06-08T06:45:28.632Z,100851.96
2019-06-08T06:47:57.341Z,100849.98
2019-06-08T06:50:24.838Z,100873.27
2019-06-08T06:52:52.968Z,100865.75
2019-06-08T06:55:20.545Z,100864.66
2019-06-08T06:57:49.256Z,100887.38
2019-06-08T07:00:29.318Z,100882.67
2019-06-08T07:02:58.299Z,100880.44
2019-06-08T07:05:25.649Z,100887.33
2019-06-08T07:07:55.691Z,100885.39
2019-06-08T07:10:23.561Z,100886.50
2019-06-08T07:12:50.927Z,100896.22
2019-06-08T07:15:26.926Z,100903.12
2019-06-08T07:17:55.360Z,100904.76
2019-06-08T07:20:22.809Z,100919.71
2019-06-08T07:22:50.513Z,100925.00
2019-06-08T07:25:17.805Z,100934.67
2019-06-08T07:27:46.379Z,100934.73
2019-06-08T07:30:13.977Z,100942.22
2019-06-08T07:32:41.211Z,100938.34
2019-06-08T07:35:08.708Z,100944.98
2019-06-08T07:37:36.107Z,100954.66
2019-06-08T07:40:04.185Z,100953.83
2019-06-08T07:42:31.455Z,100962.69
2019-06-08T07:45:00.213Z,100956.30
2019-06-08T07:47:27.637Z,100963.80
2019-06-08T07:49:55.578Z,100968.23
2019-06-08T07:52:23.104Z,100962.98
2019-06-08T07:54:53.420Z,100962.16
2019-06-08T07:57:21.820Z,100973.77
2019-06-08T07:59:50.316Z,100965.47
2019-06-08T08:02:17.832Z,100956.06
2019-06-08T08:04:45.091Z,100963.48
2019-06-08T08:07:12.550Z,100957.95
2019-06-08T08:09:40.052Z,100956.56
2019-06-08T08:12:07.428Z,100958.20
2019-06-08T08:14:34.896Z,100955.96
2019-06-08T08:17:02.379Z,100954.05
2019-06-08T08:19:29.762Z,100971.23
2019-06-08T08:22:03.181Z,100954.33
2019-06-08T08:24:27.186Z,100953.19
2019-06-08T08:26:56.989Z,100961.19
2019-06-08T08:29:23.821Z,100966.92
2019-06-08T08:31:51.842Z,100964.77
2019-06-08T08:34:22.530Z,100976.77
2019-06-08T08:36:51.102Z,100964.83
2019-06-08T08:39:19.005Z,100981.20
2019-06-08T08:41:49.952Z,100973.15
2019-06-08T08:44:17.446Z,100991.72
2019-06-08T08:46:44.486Z,100992.30
2019-06-08T08:49:13.064Z,100989.23
2019-06-08T08:51:40.603Z,100985.03
2019-06-08T08:54:08.621Z,100986.69
2019-06-08T08:56:38.352Z,100980.85
2019-06-08T08:59:07.865Z,101003.91
2019-06-08T09:01:34.634Z,100989.48
2019-06-08T09:04:04.998Z,100989.19
2019-06-08T09:06:31.371Z,101008.88
2019-06-08T09:09:01.751Z,101001.03
2019-06-08T09:11:28.889Z,101003.98
2019-06-08T09:14:02.520Z,101002.73
2019-06-08T09:16:25.769Z,101006.77
2019-06-08T09:18:54.061Z,101014.69
2019-06-08T09:21:23.009Z,101009.34
2019-06-08T09:23:52.301Z,101020.91
2019-06-08T09:26:19.709Z,101025.30
2019-06-08T09:28:49.462Z,101030.62
2019-06-08T09:31:18.645Z,101036.56
2019-06-08T09:33:55.193Z,101037.30
2019-06-08T09:36:17.570Z,101041.16
2019-06-08T09:38:44.770Z,101040.58
2019-06-08T09:41:12.028Z,101042.75
2019-06-08T09:43:39.423Z,101044.00
2019-06-08T09:46:09.144Z,101046.02
2019-06-08T09:48:38.052Z,101043.05
2019-06-08T09:51:06.419Z,101037.63
2019-06-08T09:53:40.503Z,101019.75
2019-06-08T09:56:06.647Z,101039.17
2019-06-08T09:58:33.390Z,101037.22
2019-06-08T10:01:03.669Z,101043.59
2019-06-08T10:03:30.830Z,101033.81
2019-06-08T10:06:01.586Z,101026.55
2019-06-08T10:08:28.382Z,101025.33
2019-06-08T10:10:57.283Z,101023.30
2019-06-08T10:13:25.115Z,101028.68
2019-06-08T10:15:52.409Z,101034.65
2019-06-08T10:18:19.877Z,101040.09
2019-06-08T10:20:48.205Z,101032.70
2019-06-08T10:23:29.926Z,101044.66
2019-06-08T10:25:45.008Z,101052.88
2019-06-08T10:28:15.927Z,101045.86
2019-06-08T10:30:41.642Z,101067.58
2019-06-08T10:33:10.084Z,101058.30
2019-06-08T10:35:38.292Z,101052.50
2019-06-08T10:38:11.523Z,101060.28
2019-06-08T10:40:58.747Z,101074.52
2019-06-08T10:43:28.934Z,101071.21
2019-06-08T10:46:00.112Z,101070.09
2019-06-08T10:48:27.642Z,101073.55
2019-06-08T10:50:58.541Z,101071.45
2019-06-08T10:53:25.679Z,101076.64
2019-06-08T10:55:53.093Z,101070.71
2019-06-08T10:58:21.629Z,101069.89
2019-06-08T11:00:49.069Z,101078.03
2019-06-08T11:03:17.018Z,101072.00
2019-06-08T11:05:44.532Z,101056.17
2019-06-08T11:08:14.597Z,101061.88
2019-06-08T11:10:41.896Z,101072.71
2019-06-08T11:13:15.008Z,101055.44
2019-06-08T11:15:38.844Z,101080.79
2019-06-08T11:18:09.973Z,101071.06
2019-06-08T11:20:38.227Z,101069.10
2019-06-08T11:23:05.680Z,101064.62
2019-06-08T11:25:34.703Z,101055.81
2019-06-08T11:28:03.520Z,101068.74
2019-06-08T11:30:31.376Z,101058.18
2019-06-08T11:32:59.889Z,101066.67
2019-06-08T11:35:28.931Z,101067.41
2019-06-08T11:37:58.478Z,101071.97
2019-06-08T11:40:27.720Z,101066.78
2019-06-08T11:42:54.757Z,101070.33
2019-06-08T11:45:22.241Z,101082.28
2019-06-08T11:47:50.197Z,101080.95
2019-06-08T11:50:49.138Z,101085.38
2019-06-08T11:53:18.069Z,101089.36
2019-06-08T11:55:50.642Z,101080.62
2019-06-08T11:58:22.523Z,101081.17
2019-06-08T12:01:02.852Z,101079.91
2019-06-08T12:03:30.676Z,101077.67
2019-06-08T12:05:58.692Z,101082.12
2019-06-08T12:08:28.423Z,101091.17
2019-06-08T12:11:01.251Z,101081.07
2019-06-08T12:13:27.619Z,101083.70
2019-06-08T12:15:55.219Z,101078.08
2019-06-08T12:18:22.706Z,101089.98
2019-06-08T12:20:50.235Z,101079.42
2019-06-08T12:23:17.570Z,101075.18
2019-06-08T12:25:44.970Z,101086.27
2019-06-08T12:28:12.616Z,101093.14
2019-06-08T12:30:39.990Z,101085.42
2019-06-08T12:33:09.778Z,101096.75
2019-06-08T12:35:36.782Z,101093.95
2019-06-08T12:38:05.568Z,101090.09
2019-06-08T12:40:33.943Z,101087.75
2019-06-08T12:43:03.644Z,101097.98
2019-06-08T12:45:31.449Z,101093.46
2019-06-08T12:47:58.725Z,101098.01
2019-06-08T12:50:29.437Z,101095.20
2019-06-08T12:52:58.333Z,101105.00
2019-06-08T12:55:27.389Z,101089.93
2019-06-08T12:57:54.777Z,101092.17
2019-06-08T13:00:22.417Z,101087.63
2019-06-08T13:02:50.858Z,101094.81
2019-06-08T13:05:22.590Z,101088.53
2019-06-08T13:07:51.247Z,101098.06
2019-06-08T13:10:23.476Z,101099.39
2019-06-08T13:12:48.107Z,101100.16
2019-06-08T13:15:19.597Z,101098.06
2019-06-08T13:17:50.435Z,101102.23
2019-06-08T13:20:22.385Z,101101.16
2019-06-08T13:22:50.036Z,101102.24
2019-06-08T13:25:33.891Z,101097.95
2019-06-08T13:27:47.919Z,101106.39
2019-06-08T13:30:19.725Z,101107.59
2019-06-08T13:32:48.125Z,101114.09
2019-06-08T13:35:21.164Z,101099.95
2019-06-08T13:37:52.728Z,101112.65
2019-06-08T13:40:23.239Z,101110.75
2019-06-08T13:42:51.174Z,101114.16
2019-06-08T13:45:21.649Z,101108.58
2019-06-08T13:47:50.436Z,101112.35
2019-06-08T13:50:20.347Z,101106.61
2019-06-08T13:58:15.116Z,101114.19
2019-06-08T14:10:19.608Z,101108.85
2019-06-08T14:13:55.227Z,101107.91
2019-06-08T14:17:24.132Z,101108.45
2019-06-08T14:20:49.713Z,101105.19
2019-06-08T14:29:04.497Z,101117.41
2019-06-08T14:37:12.831Z,101101.20
2019-06-08T14:41:07.532Z,101101.18
2019-06-08T14:52:59.619Z,101116.48
2019-06-08T14:56:19.882Z,101103.72
2019-06-08T15:00:12.491Z,101112.11
2019-06-08T15:03:48.042Z,101109.31
2019-06-08T15:07:44.127Z,101110.25
2019-06-08T15:15:48.354Z,101106.78
2019-06-08T15:19:26.463Z,101110.49
2019-06-08T15:26:23.212Z,101102.84
2019-06-08T15:33:52.078Z,101106.59
2019-06-08T19:06:18.730Z,101142.89
2019-06-08T20:18:32.285Z,101212.38
2019-06-08T20:21:42.807Z,101215.56
2019-06-08T20:24:55.749Z,101218.48
2019-06-08T20:27:51.810Z,101216.72
2019-06-08T20:30:52.666Z,101221.56
2019-06-08T20:37:24.079Z,101225.55
2019-06-08T20:40:21.254Z,101228.52
2019-06-08T20:43:22.253Z,101232.31
2019-06-08T20:46:49.469Z,101233.97
2019-06-08T20:49:48.622Z,101239.71
2019-06-08T20:53:08.488Z,101230.77
2019-06-08T20:55:57.239Z,101234.50
2019-06-08T20:59:03.231Z,101235.53
2019-06-08T21:02:22.121Z,101238.18
2019-06-08T21:05:43.644Z,101240.90
2019-06-08T21:12:10.436Z,101243.89
2019-06-08T21:15:04.141Z,101252.58
2019-06-08T21:18:22.673Z,101251.62
2019-06-08T21:20:53.139Z,101251.82
2019-06-08T21:23:21.141Z,101250.30
2019-06-08T21:25:50.855Z,101251.48
2019-06-08T21:28:20.352Z,101249.27
2019-06-08T21:30:53.362Z,101256.80
2019-06-08T21:33:19.128Z,101252.97
2019-06-08T21:35:49.664Z,101251.13
2019-06-08T21:38:23.810Z,101251.23
2019-06-08T21:40:50.977Z,101257.42
2019-06-08T21:43:18.496Z,101251.77
2019-06-08T21:45:48.719Z,101254.34
2019-06-08T21:48:16.581Z,101255.72
2019-06-08T21:50:44.858Z,101266.73
2019-06-08T21:53:13.389Z,101257.77
2019-06-08T21:55:42.289Z,101256.67
2019-06-08T21:58:11.061Z,101263.12
2019-06-08T22:00:43.358Z,101257.13
2019-06-08T22:03:10.155Z,101259.88
2019-06-08T22:05:38.829Z,101263.59
2019-06-08T22:08:07.949Z,101265.70
2019-06-08T22:10:37.728Z,101266.48
2019-06-08T22:13:08.651Z,101278.66
2019-06-08T22:15:37.903Z,101273.92
2019-06-08T22:18:08.032Z,101274.25
2019-06-08T22:20:38.242Z,101270.95
2019-06-08T22:23:07.347Z,101274.61
2019-06-08T22:25:38.557Z,101278.09
2019-06-08T22:28:07.346Z,101275.59
2019-06-08T22:30:42.607Z,101273.59
2019-06-08T22:33:21.647Z,101272.97
2019-06-08T22:35:50.165Z,101273.92
2019-06-08T22:38:19.001Z,101278.79
2019-06-08T22:40:48.001Z,101280.04
2019-06-08T22:43:19.062Z,101282.72
2019-06-08T22:45:48.116Z,101288.00
2019-06-08T22:48:18.692Z,101286.23
2019-06-08T22:50:47.697Z,101293.53
2019-06-08T22:53:16.421Z,101292.74
2019-06-08T22:55:44.877Z,101285.70
2019-06-08T22:58:13.216Z,101299.38
2019-06-08T23:00:52.303Z,101298.53
2019-06-08T23:03:11.365Z,101302.11
2019-06-08T23:05:39.563Z,101303.57
2019-06-08T23:08:09.429Z,101304.80
2019-06-08T23:10:37.837Z,101300.15
2019-06-08T23:13:08.285Z,101295.33
2019-06-08T23:15:44.765Z,101289.45
2019-06-08T23:18:13.376Z,101287.78
2019-06-08T23:20:41.859Z,101290.44
2019-06-08T23:23:09.509Z,101297.80
2019-06-08T23:25:37.838Z,101297.91
2019-06-08T23:28:09.691Z,101294.27
2019-06-08T23:30:38.219Z,101302.13
2019-06-08T23:33:11.110Z,101298.34
2019-06-08T23:35:47.898Z,101301.09
2019-06-08T23:38:08.079Z,101297.47
2019-06-08T23:40:37.892Z,101297.17
2019-06-08T23:43:06.030Z,101292.35
2019-06-08T23:45:34.374Z,101287.50
2019-06-08T23:48:02.921Z,101290.09
2019-06-08T23:50:30.956Z,101298.80
2019-06-08T23:52:59.617Z,101290.59
2019-06-08T23:55:28.925Z,101291.02
2019-06-08T23:57:57.294Z,101295.78
